createdAt,value
2023-06-11T00:02:05.159Z,100575.13
2023-06-11T00:04:35.864Z,100577.84
2023-06-11T00:07:06.440Z,100582.34
2023-06-11T00:09:34.626Z,100585.84
2023-06-11T00:12:02.197Z,100578.28
2023-06-11T00:14:29.715Z,100581.06
2023-06-11T00:16:58.583Z,100590.75
2023-06-11T00:19:30.087Z,100586.66
2023-06-11T00:21:58.062Z,100591.50
2023-06-11T00:24:25.671Z,100587.38
2023-06-11T00:26:53.166Z,100592.78
2023-06-11T00:29:20.669Z,100589.56
2023-06-11T00:31:48.238Z,100590.06
2023-06-11T00:34:17.201Z,100592.25
2023-06-11T00:36:45.251Z,100596.91
2023-06-11T00:39:13.354Z,100600.91
2023-06-11T00:41:46.529Z,100604.97
2023-06-11T00:44:18.550Z,100600.28
2023-06-11T00:46:48.320Z,100605.13
2023-06-11T00:49:17.261Z,100602.09
2023-06-11T00:51:46.898Z,100593.69
2023-06-11T00:54:17.717Z,100598.34
2023-06-11T00:56:45.460Z,100599.66
2023-06-11T00:59:14.323Z,100597.72
2023-06-11T01:01:47.773Z,100594.09
2023-06-11T01:04:19.503Z,100600.78
2023-06-11T01:06:50.701Z,100589.56
2023-06-11T01:09:21.776Z,100599.34
2023-06-11T01:11:50.318Z,100595.56
2023-06-11T01:14:18.652Z,100595.75
2023-06-11T01:16:53.802Z,100588.44
2023-06-11T01:19:48.390Z,100602.47
2023-06-11T01:22:20.568Z,100599.22
2023-06-11T01:25:08.952Z,100591.59
2023-06-11T01:27:57.137Z,100604.91
2023-06-11T01:30:25.556Z,100600.53
2023-06-11T01:32:57.045Z,100601.50
2023-06-11T01:35:24.957Z,100600.19
2023-06-11T01:37:56.507Z,100614.25
2023-06-11T01:40:24.890Z,100602.25
2023-06-11T01:42:54.134Z,100611.38
2023-06-11T01:45:23.280Z,100600.44
2023-06-11T01:47:52.539Z,100602.38
2023-06-11T01:50:21.463Z,100597.91
2023-06-11T01:52:49.367Z,100600.44
2023-06-11T01:55:17.037Z,100601.06
2023-06-11T01:57:44.560Z,100602.69
2023-06-11T02:00:14.211Z,100606.66
2023-06-11T02:02:43.084Z,100608.00
2023-06-11T02:05:11.252Z,100605.47
2023-06-11T02:07:39.163Z,100608.50
2023-06-11T02:10:07.446Z,100612.00
2023-06-11T02:12:34.958Z,100606.34
2023-06-11T02:15:02.500Z,100605.03
2023-06-11T02:17:31.325Z,100609.88
2023-06-11T02:19:59.696Z,100604.75
2023-06-11T02:22:27.263Z,100607.06
2023-06-11T02:24:54.775Z,100603.44
2023-06-11T02:27:22.335Z,100611.03
2023-06-11T02:29:49.827Z,100611.00
2023-06-11T02:32:17.457Z,100608.53
2023-06-11T02:34:46.383Z,100608.19
2023-06-11T02:37:13.987Z,100612.97
2023-06-11T02:39:41.507Z,100611.84
2023-06-11T02:42:09.704Z,100615.03
2023-06-11T02:44:37.326Z,100614.47
2023-06-11T02:47:05.255Z,100608.06
2023-06-11T02:49:32.809Z,100605.94
2023-06-11T02:52:01.834Z,100612.09
2023-06-11T02:54:29.403Z,100617.75
2023-06-11T02:56:56.913Z,100611.16
2023-06-11T02:59:24.443Z,100615.28
2023-06-11T03:01:52.153Z,100625.50
2023-06-11T03:04:20.004Z,100630.09
2023-06-11T03:06:47.526Z,100622.22
2023-06-11T03:09:16.348Z,100622.22
2023-06-11T03:11:43.839Z,100629.00
2023-06-11T03:14:11.369Z,100627.13
2023-06-11T03:16:38.889Z,100631.31
2023-06-11T03:19:06.409Z,100636.22
2023-06-11T03:21:33.927Z,100636.97
2023-06-11T03:24:01.571Z,100643.19
2023-06-11T03:26:30.424Z,100636.53
2023-06-11T03:28:57.946Z,100637.28
2023-06-11T03:31:25.600Z,100634.81
2023-06-11T03:33:53.185Z,100647.66
2023-06-11T03:36:20.754Z,100654.13
2023-06-11T03:38:48.254Z,100657.06
2023-06-11T03:41:16.000Z,100646.72
2023-06-11T03:43:44.821Z,100652.63
2023-06-11T03:46:12.373Z,100651.81
2023-06-11T03:48:39.860Z,100651.16
2023-06-11T03:51:07.770Z,100659.25
2023-06-11T03:53:35.308Z,100652.53
2023-06-11T03:56:02.814Z,100658.78
2023-06-11T03:58:30.347Z,100655.25
2023-06-11T04:00:59.313Z,100654.34
2023-06-11T04:03:26.989Z,100659.81
2023-06-11T04:05:54.565Z,100669.91
2023-06-11T04:08:22.103Z,100666.13
2023-06-11T04:10:49.647Z,100664.00
2023-06-11T04:13:17.159Z,100668.09
2023-06-11T04:15:44.665Z,100659.19
2023-06-11T04:18:13.646Z,100662.69
2023-06-11T04:20:41.201Z,100660.06
2023-06-11T04:23:08.766Z,100665.28
2023-06-11T04:25:37.507Z,100664.66
2023-06-11T04:28:05.598Z,100678.59
2023-06-11T04:30:34.553Z,100674.81
2023-06-11T04:33:05.543Z,100673.38
2023-06-11T04:35:35.297Z,100670.09
2023-06-11T04:38:04.048Z,100665.94
2023-06-11T04:40:31.575Z,100678.47
2023-06-11T04:42:59.759Z,100678.97
2023-06-11T04:45:27.869Z,100665.22
2023-06-11T04:47:55.411Z,100671.34
2023-06-11T04:50:23.088Z,100664.31
2023-06-11T04:52:53.153Z,100671.44
2023-06-11T04:55:25.554Z,100666.03
2023-06-11T04:57:53.788Z,100670.84
2023-06-11T05:00:21.403Z,100673.91
2023-06-11T05:02:50.874Z,100669.66
2023-06-11T05:05:18.554Z,100671.19
2023-06-11T05:07:46.195Z,100659.91
2023-06-11T05:10:16.633Z,100660.22
2023-06-11T05:12:44.197Z,100670.66
2023-06-11T05:15:12.638Z,100662.16
2023-06-11T05:17:40.551Z,100657.03
2023-06-11T05:20:10.180Z,100671.84
2023-06-11T05:22:37.744Z,100672.97
2023-06-11T05:25:05.932Z,100667.56
2023-06-11T05:27:34.764Z,100672.88
2023-06-11T05:30:03.228Z,100672.66
2023-06-11T05:32:32.286Z,100673.63
2023-06-11T05:35:00.049Z,100681.34
2023-06-11T05:37:27.580Z,100680.84
2023-06-11T05:39:55.189Z,100685.28
2023-06-11T05:42:22.759Z,100681.63
2023-06-11T05:44:51.581Z,100677.69
2023-06-11T05:47:19.460Z,100687.03
2023-06-11T05:49:47.122Z,100683.97
2023-06-11T05:52:14.684Z,100679.19
2023-06-11T05:54:42.227Z,100692.31
2023-06-11T05:57:19.843Z,100691.63
2023-06-11T05:59:47.413Z,100687.91
2023-06-11T06:02:16.482Z,100689.03
2023-06-11T06:04:44.129Z,100685.88
2023-06-11T06:07:11.644Z,100692.47
2023-06-11T06:09:39.252Z,100687.38
2023-06-11T06:12:07.862Z,100694.28
2023-06-11T06:14:35.964Z,100699.03
2023-06-11T06:17:03.561Z,100695.75
2023-06-11T06:19:32.422Z,100698.00
2023-06-11T06:21:59.944Z,100698.88
2023-06-11T06:24:27.579Z,100700.56
2023-06-11T06:26:57.374Z,100706.09
2023-06-11T06:29:25.221Z,100695.44
2023-06-11T06:31:52.787Z,100705.78
2023-06-11T06:34:20.374Z,100705.59
2023-06-11T06:36:49.215Z,100709.31
2023-06-11T06:39:16.764Z,100698.47
2023-06-11T06:41:44.271Z,100702.56
2023-06-11T06:44:11.977Z,100710.78
2023-06-11T06:46:39.674Z,100704.25
2023-06-11T06:49:07.219Z,100712.50
2023-06-11T06:51:34.910Z,100713.84
2023-06-11T06:54:03.803Z,100719.31
2023-06-11T06:56:31.335Z,100716.31
2023-06-11T06:58:58.851Z,100721.50
2023-06-11T07:01:26.469Z,100722.38
2023-06-11T07:03:54.014Z,100725.34
2023-06-11T07:06:21.606Z,100729.69
2023-06-11T07:08:49.220Z,100728.63
2023-06-11T07:11:18.209Z,100724.06
2023-06-11T07:13:45.713Z,100723.31
2023-06-11T07:16:13.493Z,100721.44
2023-06-11T07:18:41.116Z,100722.53
2023-06-11T07:21:09.394Z,100721.50
2023-06-11T07:23:36.951Z,100721.78
2023-06-11T07:26:04.618Z,100727.00
2023-06-11T07:28:33.484Z,100715.06
2023-06-11T07:31:01.041Z,100721.34
2023-06-11T07:33:28.648Z,100716.72
2023-06-11T07:35:57.153Z,100724.06
2023-06-11T07:38:25.047Z,100714.56
2023-06-11T07:40:53.199Z,100717.84
2023-06-11T07:43:20.752Z,100713.25
2023-06-11T07:45:49.840Z,100722.22
2023-06-11T07:48:19.295Z,100722.50
2023-06-11T07:50:46.770Z,100720.88
2023-06-11T07:53:14.861Z,100722.50
2023-06-11T07:55:43.588Z,100728.78
2023-06-11T07:58:11.099Z,100723.59
2023-06-11T08:00:38.667Z,100734.78
2023-06-11T08:03:07.590Z,100723.06
2023-06-11T08:05:35.163Z,100717.88
2023-06-11T08:08:02.726Z,100717.63
2023-06-11T08:10:30.241Z,100717.88
2023-06-11T08:12:57.734Z,100723.06
2023-06-11T08:15:25.505Z,100717.63
2023-06-11T08:17:53.367Z,100712.16
2023-06-11T08:20:22.526Z,100718.19
2023-06-11T08:22:50.144Z,100720.06
2023-06-11T08:25:17.842Z,100711.56
2023-06-11T08:27:45.590Z,100709.41
2023-06-11T08:30:14.087Z,100711.53
2023-06-11T08:32:41.777Z,100713.16
2023-06-11T08:35:09.822Z,100704.41
2023-06-11T08:37:38.711Z,100703.63
2023-06-11T08:40:11.896Z,100700.31
2023-06-11T08:42:39.759Z,100702.47
2023-06-11T08:45:08.770Z,100698.34
2023-06-11T08:47:42.309Z,100698.63
2023-06-11T08:50:11.462Z,100704.91
2023-06-11T08:52:43.709Z,100706.44
2023-06-11T08:55:11.497Z,100705.91
2023-06-11T08:57:39.499Z,100700.44
2023-06-11T09:00:11.184Z,100690.56
2023-06-11T09:02:39.239Z,100685.50
2023-06-11T09:05:07.479Z,100692.66
2023-06-11T09:07:37.349Z,100690.41
2023-06-11T09:10:08.317Z,100690.94
2023-06-11T09:12:37.124Z,100695.59
2023-06-11T09:15:06.995Z,100690.34
2023-06-11T09:17:35.688Z,100683.84
2023-06-11T09:20:07.152Z,100679.16
2023-06-11T09:22:37.227Z,100684.94
2023-06-11T09:25:10.025Z,100686.56
2023-06-11T09:27:39.351Z,100683.75
2023-06-11T09:30:17.206Z,100689.13
2023-06-11T09:32:47.270Z,100690.34
2023-06-11T09:35:22.213Z,100686.16
2023-06-11T09:37:52.060Z,100680.69
2023-06-11T09:40:25.359Z,100681.56
2023-06-11T09:42:53.554Z,100674.28
2023-06-11T09:45:24.577Z,100677.97
2023-06-11T09:47:52.881Z,100679.13
2023-06-11T09:50:25.119Z,100670.00
2023-06-11T09:52:56.001Z,100681.00
2023-06-11T09:55:27.214Z,100675.34
2023-06-11T09:57:56.117Z,100677.97
2023-06-11T10:00:24.365Z,100682.84
2023-06-11T10:02:52.323Z,100680.34
2023-06-11T10:05:20.272Z,100676.53
2023-06-11T10:07:51.801Z,100680.50
2023-06-11T10:10:23.292Z,100683.44
2023-06-11T10:12:56.580Z,100674.84
2023-06-11T10:15:25.278Z,100684.22
2023-06-11T10:17:54.623Z,100675.88
2023-06-11T10:20:27.427Z,100681.81
2023-06-11T10:23:07.371Z,100677.00
2023-06-11T10:25:36.880Z,100685.38
2023-06-11T10:28:06.974Z,100678.16
2023-06-11T10:30:34.637Z,100676.00
2023-06-11T10:33:05.639Z,100674.03
2023-06-11T10:35:34.191Z,100679.59
2023-06-11T10:38:06.640Z,100668.06
2023-06-11T10:40:35.859Z,100670.94
2023-06-11T10:43:13.768Z,100671.69
2023-06-11T10:45:41.391Z,100658.06
2023-06-11T10:48:12.652Z,100669.00
2023-06-11T10:50:40.898Z,100674.00
2023-06-11T10:53:14.159Z,100671.03
2023-06-11T10:55:45.552Z,100676.34
2023-06-11T10:58:23.853Z,100678.78
2023-06-11T11:00:54.004Z,100675.38
2023-06-11T11:03:23.399Z,100673.63
2023-06-11T11:05:52.181Z,100670.66
2023-06-11T11:08:21.723Z,100658.88
2023-06-11T11:10:55.520Z,100675.47
2023-06-11T11:13:24.818Z,100660.66
2023-06-11T11:15:53.004Z,100664.72
2023-06-11T11:18:20.586Z,100663.03
2023-06-11T11:20:48.202Z,100660.19
2023-06-11T11:23:15.712Z,100665.53
2023-06-11T11:25:43.541Z,100659.09
2023-06-11T11:28:12.588Z,100658.16
2023-06-11T11:30:41.880Z,100652.59
2023-06-11T11:33:09.720Z,100650.00
2023-06-11T11:35:47.630Z,100649.81
2023-06-11T11:38:15.471Z,100636.69
2023-06-11T11:40:43.186Z,100638.56
2023-06-11T11:43:13.680Z,100639.63
2023-06-11T11:45:48.027Z,100649.09
2023-06-11T11:48:16.209Z,100644.94
2023-06-11T11:50:45.838Z,100634.09
2023-06-11T11:53:16.350Z,100633.38
2023-06-11T11:56:00.323Z,100625.22
2023-06-11T11:58:38.687Z,100623.66
2023-06-11T12:01:09.797Z,100635.75
2023-06-11T12:03:38.420Z,100620.31
2023-06-11T12:06:07.991Z,100613.59
2023-06-11T12:08:37.189Z,100612.38
2023-06-11T12:11:07.699Z,100617.19
2023-06-11T12:13:36.082Z,100620.84
2023-06-11T12:16:05.119Z,100609.34
2023-06-11T12:18:34.470Z,100597.97
2023-06-11T12:21:02.106Z,100599.00
2023-06-11T12:23:29.652Z,100598.47
2023-06-11T12:25:57.256Z,100591.56
2023-06-11T12:28:24.844Z,100592.19
2023-06-11T12:30:52.577Z,100591.75
2023-06-11T12:33:20.387Z,100590.66
2023-06-11T12:35:49.433Z,100592.25
2023-06-11T12:38:18.495Z,100582.81
2023-06-11T12:40:46.169Z,100583.34
2023-06-11T12:43:13.703Z,100590.59
2023-06-11T12:45:41.359Z,100598.81
2023-06-11T12:48:09.063Z,100595.03
2023-06-11T12:50:36.768Z,100584.34
2023-06-11T12:53:05.841Z,100588.69
2023-06-11T12:55:33.604Z,100587.84
2023-06-11T12:58:01.135Z,100577.00
2023-06-11T13:00:31.500Z,100581.97
2023-06-11T13:02:59.410Z,100577.97
2023-06-11T13:05:27.815Z,100584.28
2023-06-11T13:07:57.346Z,100568.34
2023-06-11T13:10:27.060Z,100559.97
2023-06-11T13:12:59.506Z,100561.63
2023-06-11T13:15:27.424Z,100558.38
2023-06-11T13:17:55.334Z,100562.44
2023-06-11T13:20:23.409Z,100558.38
2023-06-11T13:22:51.368Z,100559.97
2023-06-11T13:25:19.099Z,100558.25
2023-06-11T13:27:49.372Z,100557.53
2023-06-11T13:30:17.626Z,100550.63
2023-06-11T13:32:45.384Z,100555.41
2023-06-11T13:35:13.538Z,100557.34
2023-06-11T13:37:41.754Z,100554.72
2023-06-11T13:40:12.717Z,100546.88
2023-06-11T13:42:41.359Z,100542.72
2023-06-11T13:45:11.011Z,100541.91
2023-06-11T13:47:39.036Z,100533.78
2023-06-11T13:50:07.863Z,100532.16
2023-06-11T13:52:36.542Z,100537.63
2023-06-11T13:55:04.297Z,100535.59
2023-06-11T13:57:33.907Z,100528.59
2023-06-11T14:00:01.693Z,100525.91
2023-06-11T14:02:30.597Z,100526.22
2023-06-11T14:04:58.363Z,100539.75
2023-06-11T14:07:25.984Z,100524.41
2023-06-11T14:09:53.621Z,100503.28
2023-06-11T14:12:21.111Z,100518.81
2023-06-11T14:14:48.700Z,100522.47
2023-06-11T14:17:54.656Z,100513.53
2023-06-11T14:20:23.695Z,100508.50
2023-06-11T14:22:51.256Z,100507.34
2023-06-11T14:25:18.962Z,100495.56
2023-06-11T14:27:46.511Z,100506.94
2023-06-11T14:30:15.220Z,100504.19
2023-06-11T14:32:42.801Z,100493.75
2023-06-11T14:35:10.573Z,100496.28
2023-06-11T14:37:39.405Z,100493.38
2023-06-11T14:40:08.303Z,100481.41
2023-06-11T14:42:35.915Z,100478.47
2023-06-11T14:45:03.690Z,100477.09
2023-06-11T14:47:31.447Z,100466.69
2023-06-11T14:49:59.008Z,100477.94
2023-06-11T14:52:26.539Z,100472.88
2023-06-11T14:54:55.573Z,100463.75
2023-06-11T14:57:26.111Z,100465.56
2023-06-11T14:59:54.348Z,100467.44
2023-06-11T15:02:21.993Z,100459.44
2023-06-11T15:04:49.602Z,100448.97
2023-06-11T15:07:33.387Z,100453.47
2023-06-11T15:10:05.950Z,100451.09
2023-06-11T15:12:33.664Z,100452.59
2023-06-11T15:15:02.136Z,100462.81
2023-06-11T15:17:36.532Z,100461.22
2023-06-11T15:20:06.037Z,100456.41
2023-06-11T15:22:36.084Z,100463.75
2023-06-11T15:25:05.240Z,100449.94
2023-06-11T15:27:32.810Z,100445.13
2023-06-11T15:30:00.418Z,100446.72
2023-06-11T15:32:28.089Z,100441.25
2023-06-11T15:34:55.647Z,100443.19
2023-06-11T15:37:23.177Z,100453.66
2023-06-11T15:39:51.667Z,100437.25
2023-06-11T15:42:21.057Z,100442.72
2023-06-11T15:44:49.502Z,100446.47
2023-06-11T15:47:17.696Z,100441.69
2023-06-11T15:49:45.431Z,100435.00
2023-06-11T15:52:13.018Z,100430.72
2023-06-11T15:54:40.588Z,100431.50
2023-06-11T15:57:08.576Z,100440.25
2023-06-11T15:59:37.662Z,100436.81
2023-06-11T16:02:05.870Z,100437.91
2023-06-11T16:04:33.671Z,100434.69
2023-06-11T16:07:01.978Z,100431.44
2023-06-11T16:09:29.696Z,100436.59
2023-06-11T16:11:57.291Z,100436.09
2023-06-11T16:14:24.901Z,100425.00
2023-06-11T16:16:53.760Z,100425.94
2023-06-11T16:19:21.336Z,100427.69
2023-06-11T16:21:48.922Z,100429.16
2023-06-11T16:24:16.529Z,100440.97
2023-06-11T16:26:46.839Z,100424.75
2023-06-11T16:29:14.561Z,100425.88
2023-06-11T16:31:43.963Z,100431.13
2023-06-11T16:34:13.406Z,100430.88
2023-06-11T16:36:40.982Z,100426.38
2023-06-11T16:39:25.819Z,100425.19
2023-06-11T16:41:54.717Z,100428.81
2023-06-11T16:44:22.225Z,100422.50
2023-06-11T16:46:49.820Z,100423.78
2023-06-11T16:49:19.311Z,100423.00
2023-06-11T16:51:47.020Z,100416.69
2023-06-11T16:54:18.291Z,100414.13
2023-06-11T16:56:46.468Z,100415.28
2023-06-11T16:59:14.201Z,100416.56
2023-06-11T17:01:41.789Z,100421.41
2023-06-11T17:04:12.079Z,100421.53
2023-06-11T17:06:42.737Z,100424.47
2023-06-11T17:09:10.396Z,100415.56
2023-06-11T17:11:37.902Z,100411.75
2023-06-11T17:14:05.980Z,100421.63
2023-06-11T17:16:33.668Z,100414.47
2023-06-11T17:19:01.157Z,100413.00
2023-06-11T17:21:28.679Z,100410.22
2023-06-11T17:23:58.285Z,100405.19
2023-06-11T17:26:28.202Z,100420.28
2023-06-11T17:28:55.742Z,100406.84
2023-06-11T17:31:23.369Z,100416.69
2023-06-11T17:33:50.894Z,100413.47
2023-06-11T17:36:18.685Z,100415.31
2023-06-11T17:38:47.126Z,100399.28
2023-06-11T17:41:16.549Z,100401.22
2023-06-11T17:43:44.788Z,100401.91
2023-06-11T17:46:13.571Z,100406.81
2023-06-11T17:48:41.221Z,100402.97
2023-06-11T17:51:08.837Z,100417.53
2023-06-11T17:53:36.388Z,100408.59
2023-06-11T17:56:03.948Z,100412.44
2023-06-11T17:58:32.784Z,100416.13
2023-06-11T18:01:00.461Z,100412.66
2023-06-11T18:03:28.130Z,100414.03
2023-06-11T18:05:55.701Z,100429.09
2023-06-11T18:08:23.250Z,100418.28
2023-06-11T18:10:50.809Z,100419.16
2023-06-11T18:13:18.344Z,100415.19
2023-06-11T18:15:47.505Z,100420.16
2023-06-11T18:18:16.179Z,100420.69
2023-06-11T18:20:43.687Z,100425.56
2023-06-11T18:23:33.750Z,100423.13
2023-06-11T18:26:01.290Z,100429.97
2023-06-11T18:28:28.888Z,100427.97
2023-06-11T18:30:57.794Z,100426.56
2023-06-11T18:33:25.375Z,100415.00
2023-06-11T18:35:52.916Z,100420.63
2023-06-11T18:38:20.493Z,100417.81
2023-06-11T18:40:47.998Z,100423.56
2023-06-11T18:43:15.480Z,100420.31
2023-06-11T18:45:43.086Z,100426.41
2023-06-11T18:48:12.154Z,100428.34
2023-06-11T18:50:40.054Z,100432.09
2023-06-11T18:53:07.585Z,100436.94
2023-06-11T18:55:35.228Z,100437.72
2023-06-11T18:58:07.316Z,100441.66
2023-06-11T19:00:37.651Z,100449.69
2023-06-11T19:03:05.779Z,100452.38
2023-06-11T19:05:35.034Z,100444.31
2023-06-11T19:08:03.477Z,100448.78
2023-06-11T19:10:31.257Z,100444.44
2023-06-11T19:12:59.301Z,100447.09
2023-06-11T19:15:26.809Z,100456.28
2023-06-11T19:17:54.419Z,100458.06
2023-06-11T19:20:22.045Z,100463.16
2023-06-11T19:22:50.881Z,100463.75
2023-06-11T19:25:18.394Z,100477.28
2023-06-11T19:27:46.009Z,100467.88
2023-06-11T19:30:15.801Z,100479.22
2023-06-11T19:32:43.834Z,100480.56
2023-06-11T19:35:11.744Z,100482.94
2023-06-11T19:37:39.281Z,100491.19
2023-06-11T19:40:10.360Z,100489.88
2023-06-11T19:42:38.302Z,100488.34
2023-06-11T19:45:08.248Z,100493.34
2023-06-11T19:47:36.209Z,100489.63
2023-06-11T19:50:06.209Z,100495.44
2023-06-11T19:52:33.862Z,100502.53
2023-06-11T19:55:01.733Z,100501.53
2023-06-11T19:57:30.561Z,100497.56
2023-06-11T20:00:00.005Z,100502.84
2023-06-11T20:02:28.418Z,100514.59
2023-06-11T20:04:56.851Z,100512.25
2023-06-11T20:07:24.389Z,100509.31
2023-06-11T20:09:52.743Z,100511.81
2023-06-11T20:12:20.462Z,100512.94
2023-06-11T20:14:49.839Z,100520.84
2023-06-11T20:17:17.366Z,100515.72
2023-06-11T20:19:45.110Z,100522.28
2023-06-11T20:22:12.709Z,100527.56
2023-06-11T20:24:40.616Z,100529.50
2023-06-11T20:27:11.464Z,100521.91
2023-06-11T20:29:39.361Z,100532.03
2023-06-11T20:32:10.150Z,100538.31
2023-06-11T20:34:38.394Z,100536.41
2023-06-11T20:37:06.758Z,100530.19
2023-06-11T20:39:34.284Z,100534.03
2023-06-11T20:42:01.794Z,100542.72
2023-06-11T20:44:29.328Z,100540.56
2023-06-11T20:46:56.920Z,100538.38
2023-06-11T20:49:25.885Z,100541.97
2023-06-11T20:51:57.829Z,100540.41
2023-06-11T20:54:25.581Z,100532.78
2023-06-11T20:56:53.090Z,100533.09
2023-06-11T20:59:20.747Z,100528.47
2023-06-11T21:01:48.333Z,100531.72
2023-06-11T21:04:15.972Z,100533.34
2023-06-11T21:06:44.875Z,100531.19
2023-06-11T21:09:12.681Z,100531.44
2023-06-11T21:11:40.165Z,100532.53
2023-06-11T21:14:14.332Z,100531.44
2023-06-11T21:16:42.905Z,100529.53
2023-06-11T21:19:10.595Z,100527.91
2023-06-11T21:21:38.553Z,100530.09
2023-06-11T21:24:08.478Z,100531.44
2023-06-11T21:26:36.197Z,100529.78
2023-06-11T21:29:04.173Z,100524.09
2023-06-11T21:31:31.753Z,100541.75
2023-06-11T21:33:59.890Z,100537.97
2023-06-11T21:36:27.588Z,100534.09
2023-06-11T21:38:55.822Z,100537.06
2023-06-11T21:41:24.656Z,100535.16
2023-06-11T21:43:52.145Z,100531.59
2023-06-11T21:46:19.697Z,100535.69
2023-06-11T21:48:47.225Z,100527.53
2023-06-11T21:51:14.886Z,100530.78
2023-06-11T21:53:42.421Z,100534.84
2023-06-11T21:56:10.394Z,100538.88
2023-06-11T21:58:39.477Z,100539.41
2023-06-11T22:01:07.047Z,100532.81
2023-06-11T22:03:34.620Z,100534.22
2023-06-11T22:06:03.941Z,100534.19
2023-06-11T22:08:31.661Z,100539.88
2023-06-11T22:10:59.169Z,100533.31
2023-06-11T22:13:27.786Z,100538.66
2023-06-11T22:16:04.722Z,100533.19
2023-06-11T22:18:33.956Z,100539.97
2023-06-11T22:21:01.799Z,100536.91
2023-06-11T22:23:48.942Z,100536.84
2023-06-11T22:26:18.110Z,100533.56
2023-06-11T22:28:45.768Z,100536.53
2023-06-11T22:31:14.801Z,100531.09
2023-06-11T22:33:42.345Z,100530.25
2023-06-11T22:36:10.039Z,100531.88
2023-06-11T22:38:37.598Z,100524.28
2023-06-11T22:41:05.161Z,100531.59
2023-06-11T22:43:32.758Z,100531.00
2023-06-11T22:46:00.294Z,100529.31
2023-06-11T22:48:29.170Z,100524.72
2023-06-11T22:50:57.816Z,100532.75
2023-06-11T22:53:28.732Z,100532.28
2023-06-11T22:55:57.172Z,100540.06
2023-06-11T22:58:24.698Z,100534.84
2023-06-11T23:00:52.308Z,100531.03
2023-06-11T23:03:19.881Z,100535.88
2023-06-11T23:05:48.811Z,100542.09
2023-06-11T23:08:16.421Z,100539.06
2023-06-11T23:10:45.665Z,100531.97
2023-06-11T23:13:13.220Z,100547.66
2023-06-11T23:15:40.782Z,100530.84
2023-06-11T23:18:10.898Z,100535.13
2023-06-11T23:20:38.492Z,100528.59
2023-06-11T23:23:07.512Z,100529.59
2023-06-11T23:25:35.110Z,100530.72
2023-06-11T23:28:02.667Z,100534.13
2023-06-11T23:30:30.887Z,100537.72
2023-06-11T23:33:01.065Z,100537.59
2023-06-11T23:35:28.764Z,100537.91
2023-06-11T23:37:57.657Z,100540.56
2023-06-11T23:40:26.659Z,100527.91
2023-06-11T23:42:54.250Z,100524.31
2023-06-11T23:45:21.789Z,100526.47
2023-06-11T23:47:49.404Z,100531.31
2023-06-11T23:50:17.010Z,100530.19
2023-06-11T23:52:44.646Z,100527.25
2023-06-11T23:55:12.206Z,100532.38
2023-06-11T23:57:41.310Z,100528.00
